createdAt,value
2023-08-04T00:00:13.220Z,26.27
2023-08-04T00:01:09.325Z,26.24
2023-08-04T00:01:42.101Z,26.21
2023-08-04T00:02:14.886Z,26.24
2023-08-04T00:02:47.657Z,26.24
2023-08-04T00:03:00.922Z,26.26
2023-08-04T00:03:19.060Z,26.24
2023-08-04T00:03:53.723Z,26.26
2023-08-04T00:04:26.393Z,26.28
2023-08-04T00:04:59.156Z,26.32
2023-08-04T00:05:31.936Z,26.26
2023-08-04T00:06:10.764Z,26.28
2023-08-04T00:07:02.220Z,26.16
2023-08-04T00:07:35.358Z,26.23
2023-08-04T00:08:08.145Z,26.17
2023-08-04T00:08:41.008Z,26.21
2023-08-04T00:09:17.943Z,26.18
2023-08-04T00:09:50.665Z,26.22
2023-08-04T00:10:23.777Z,26.22
2023-08-04T00:10:56.546Z,26.26
2023-08-04T00:11:48.335Z,26.22
2023-08-04T00:12:20.842Z,26.24
2023-08-04T00:12:53.578Z,26.25
2023-08-04T00:13:28.251Z,26.25
2023-08-04T00:14:01.045Z,26.31
2023-08-04T00:14:52.897Z,26.24
2023-08-04T00:15:25.650Z,26.23
2023-08-04T00:15:40.390Z,26.24
2023-08-04T00:16:13.234Z,26.20
2023-08-04T00:16:47.074Z,26.24
2023-08-04T00:17:22.747Z,26.26
2023-08-04T00:17:55.691Z,26.28
2023-08-04T00:18:28.422Z,26.31
2023-08-04T00:19:01.185Z,26.21
2023-08-04T00:19:33.945Z,26.24
2023-08-04T00:20:38.858Z,26.09
2023-08-04T00:21:11.760Z,26.17
2023-08-04T00:22:03.274Z,26.22
2023-08-04T00:22:36.358Z,26.21
2023-08-04T00:23:09.181Z,26.25
2023-08-04T00:24:00.768Z,26.27
2023-08-04T00:24:33.517Z,26.28
2023-08-04T00:25:06.863Z,26.26
2023-08-04T00:25:58.314Z,26.25
2023-08-04T00:26:31.076Z,26.23
2023-08-04T00:27:04.194Z,26.23
2023-08-04T00:27:17.307Z,26.20
2023-08-04T00:27:50.053Z,26.18
2023-08-04T00:28:23.431Z,26.18
2023-08-04T00:28:56.156Z,26.21
2023-08-04T00:29:29.623Z,26.22
2023-08-04T00:30:02.561Z,26.24
2023-08-04T00:30:35.295Z,26.27
2023-08-04T00:31:26.477Z,26.25
2023-08-04T00:31:59.209Z,26.24
2023-08-04T00:32:31.966Z,26.24
2023-08-04T00:33:23.854Z,26.15
2023-08-04T00:33:56.556Z,26.15
2023-08-04T00:34:29.305Z,26.18
2023-08-04T00:35:20.508Z,26.21
2023-08-04T00:35:53.252Z,26.15
2023-08-04T00:36:26.009Z,26.17
2023-08-04T00:36:58.810Z,26.19
2023-08-04T00:37:31.547Z,26.16
2023-08-04T00:38:05.307Z,26.05
2023-08-04T00:38:38.030Z,26.16
2023-08-04T00:38:50.891Z,26.12
2023-08-04T00:39:23.656Z,26.16
2023-08-04T00:39:56.411Z,26.15
2023-08-04T00:40:32.046Z,26.18
2023-08-04T00:41:04.911Z,26.19
2023-08-04T00:41:37.743Z,26.07
2023-08-04T00:42:29.117Z,26.11
2023-08-04T00:43:02.173Z,26.18
2023-08-04T00:43:34.914Z,26.19
2023-08-04T00:44:26.162Z,26.17
2023-08-04T00:44:58.951Z,26.21
2023-08-04T00:45:32.162Z,26.13
2023-08-04T00:46:05.002Z,26.12
2023-08-04T00:46:56.475Z,26.15
2023-08-04T00:47:47.521Z,26.11
2023-08-04T00:48:20.254Z,26.11
2023-08-04T00:48:53.033Z,26.10
2023-08-04T00:49:25.797Z,26.10
2023-08-04T00:50:16.756Z,26.16
2023-08-04T00:50:49.536Z,26.09
2023-08-04T00:51:22.409Z,26.15
2023-08-04T00:51:36.252Z,26.15
2023-08-04T00:51:49.639Z,26.16
2023-08-04T00:52:02.879Z,26.15
2023-08-04T00:52:16.236Z,26.19
2023-08-04T00:52:29.132Z,26.20
2023-08-04T00:52:42.018Z,26.18
2023-08-04T00:52:54.931Z,26.13
2023-08-04T00:53:08.818Z,26.15
2023-08-04T00:53:21.833Z,26.18
2023-08-04T00:53:34.722Z,26.18
2023-08-04T00:53:47.649Z,26.19
2023-08-04T00:54:00.829Z,26.17
2023-08-04T00:54:15.775Z,26.14
2023-08-04T00:54:28.634Z,26.18
2023-08-04T00:54:41.489Z,26.20
2023-08-04T00:54:54.392Z,26.19
2023-08-04T00:55:08.439Z,26.19
2023-08-04T00:55:21.358Z,26.20
2023-08-04T00:55:34.272Z,26.20
2023-08-04T00:55:47.182Z,26.21
2023-08-04T00:56:00.077Z,26.15
2023-08-04T00:56:12.957Z,26.18
2023-08-04T00:56:25.907Z,26.20
2023-08-04T00:56:38.900Z,26.17
2023-08-04T00:56:54.737Z,26.18
2023-08-04T00:57:07.616Z,26.17
2023-08-04T00:57:20.542Z,26.16
2023-08-04T00:57:33.888Z,26.16
2023-08-04T00:57:46.784Z,26.20
2023-08-04T00:57:59.676Z,26.17
2023-08-04T00:58:12.792Z,26.21
2023-08-04T00:58:25.710Z,26.14
2023-08-04T00:58:38.591Z,26.15
2023-08-04T00:58:51.544Z,26.17
2023-08-04T00:59:04.435Z,26.16
2023-08-04T00:59:17.383Z,26.18
2023-08-04T00:59:30.284Z,26.19
2023-08-04T00:59:43.262Z,26.17
2023-08-04T00:59:57.095Z,26.15
2023-08-04T01:00:10.427Z,26.19
2023-08-04T01:00:23.310Z,26.19
2023-08-04T01:00:36.446Z,26.23
2023-08-04T01:00:49.352Z,26.23
2023-08-04T01:01:02.335Z,26.21
2023-08-04T01:01:15.679Z,26.24
2023-08-04T01:01:28.638Z,26.21
2023-08-04T01:01:41.810Z,26.20
2023-08-04T01:01:54.780Z,26.20
2023-08-04T01:02:07.829Z,26.17
2023-08-04T01:02:20.876Z,26.20
2023-08-04T01:02:34.673Z,26.21
2023-08-04T01:02:47.711Z,26.23
2023-08-04T01:03:00.722Z,26.18
2023-08-04T01:03:13.785Z,26.19
2023-08-04T01:03:26.743Z,26.19
2023-08-04T01:03:39.863Z,26.18
2023-08-04T01:03:53.315Z,26.15
2023-08-04T01:04:26.061Z,26.18
2023-08-04T01:04:39.976Z,26.22
2023-08-04T01:05:12.758Z,26.21
2023-08-04T01:05:56.282Z,26.25
2023-08-04T01:06:38.475Z,26.13
2023-08-04T01:08:13.758Z,26.20
2023-08-04T01:09:32.842Z,26.20
2023-08-04T01:10:57.357Z,26.24
2023-08-04T01:11:39.838Z,26.21
2023-08-04T01:12:16.491Z,26.21
2023-08-04T01:13:07.260Z,26.23
2023-08-04T01:13:58.552Z,26.23
2023-08-04T01:14:32.627Z,26.10
2023-08-04T01:14:45.867Z,26.15
2023-08-04T01:15:38.361Z,26.16
2023-08-04T01:16:11.193Z,26.22
2023-08-04T01:16:43.923Z,26.23
2023-08-04T01:17:27.674Z,26.23
2023-08-04T01:18:22.955Z,26.25
2023-08-04T01:19:01.671Z,26.24
2023-08-04T01:19:36.317Z,26.23
2023-08-04T01:20:09.585Z,26.24
2023-08-04T01:21:06.798Z,26.21
2023-08-04T01:21:41.237Z,26.21
2023-08-04T01:22:14.127Z,26.25
2023-08-04T01:22:46.961Z,26.23
2023-08-04T01:23:19.953Z,26.25
2023-08-04T01:23:52.881Z,26.23
2023-08-04T01:24:45.263Z,26.23
2023-08-04T01:25:18.613Z,26.19
2023-08-04T01:25:51.387Z,26.22
2023-08-04T01:26:24.172Z,26.27
2023-08-04T01:27:16.808Z,26.24
2023-08-04T01:27:53.776Z,26.21
2023-08-04T01:28:45.120Z,26.18
2023-08-04T01:29:18.039Z,26.19
2023-08-04T01:29:50.797Z,26.16
2023-08-04T01:30:24.808Z,26.21
2023-08-04T01:30:57.934Z,26.19
2023-08-04T01:31:30.709Z,26.24
2023-08-04T01:32:03.917Z,26.24
2023-08-04T01:32:36.725Z,26.24
2023-08-04T01:33:10.395Z,26.24
2023-08-04T01:33:43.113Z,26.25
2023-08-04T01:34:35.361Z,26.24
2023-08-04T01:35:08.674Z,26.26
2023-08-04T01:35:43.620Z,26.25
2023-08-04T01:36:16.385Z,26.25
2023-08-04T01:36:49.542Z,26.23
2023-08-04T01:37:22.289Z,26.26
2023-08-04T01:37:56.012Z,26.25
2023-08-04T01:38:28.741Z,26.23
2023-08-04T01:39:20.335Z,26.25
2023-08-04T01:39:53.203Z,26.26
2023-08-04T01:40:26.189Z,26.23
2023-08-04T01:41:17.895Z,26.27
2023-08-04T01:41:52.842Z,26.29
2023-08-04T01:42:25.682Z,26.30
2023-08-04T01:43:17.105Z,26.14
2023-08-04T01:43:49.853Z,26.20
2023-08-04T01:44:22.871Z,26.24
2023-08-04T01:44:55.654Z,26.22
2023-08-04T01:45:09.079Z,26.23
2023-08-04T01:46:12.423Z,26.17
2023-08-04T01:47:04.491Z,26.23
2023-08-04T01:47:39.315Z,26.22
2023-08-04T01:48:12.041Z,26.24
2023-08-04T01:48:45.117Z,26.20
2023-08-04T01:49:17.910Z,26.23
2023-08-04T01:49:50.681Z,26.24
2023-08-04T01:50:24.833Z,26.23
2023-08-04T01:50:57.607Z,26.22
2023-08-04T01:51:30.349Z,26.21
2023-08-04T01:52:03.884Z,26.22
2023-08-04T01:52:37.323Z,26.25
2023-08-04T01:53:10.044Z,26.23
2023-08-04T01:53:42.790Z,26.22
2023-08-04T01:54:15.541Z,26.19
2023-08-04T01:54:48.306Z,26.23
2023-08-04T01:55:21.065Z,26.23
2023-08-04T01:55:53.812Z,26.22
2023-08-04T01:56:28.543Z,26.22
2023-08-04T01:57:20.841Z,26.24
2023-08-04T01:58:12.391Z,26.28
2023-08-04T01:59:03.463Z,26.27
2023-08-04T01:59:57.005Z,26.28
2023-08-04T02:00:49.059Z,26.23
2023-08-04T02:01:22.756Z,26.29
2023-08-04T02:01:55.525Z,26.28
2023-08-04T02:02:47.213Z,26.26
2023-08-04T02:03:38.512Z,26.21
2023-08-04T02:04:13.231Z,26.25
2023-08-04T02:05:05.708Z,26.23
2023-08-04T02:05:46.209Z,26.17
2023-08-04T02:06:18.975Z,26.19
2023-08-04T02:06:51.731Z,26.19
2023-08-04T02:07:24.469Z,26.19
2023-08-04T02:07:58.179Z,26.21
2023-08-04T02:08:30.978Z,26.19
2023-08-04T02:08:43.896Z,26.14
2023-08-04T02:09:16.646Z,26.16
2023-08-04T02:09:49.417Z,26.20
2023-08-04T02:10:22.174Z,26.19
2023-08-04T02:11:13.892Z,26.23
2023-08-04T02:11:47.804Z,26.25
2023-08-04T02:12:20.327Z,26.24
2023-08-04T02:12:53.100Z,26.24
2023-08-04T02:13:25.887Z,26.17
2023-08-04T02:13:59.665Z,26.20
2023-08-04T02:14:33.393Z,26.17
2023-08-04T02:15:06.529Z,26.16
2023-08-04T02:15:39.318Z,26.19
2023-08-04T02:16:12.060Z,26.22
2023-08-04T02:16:26.088Z,26.17
2023-08-04T02:16:39.093Z,26.17
2023-08-04T02:16:51.946Z,26.20
2023-08-04T02:17:05.071Z,26.22
2023-08-04T02:17:19.198Z,26.25
2023-08-04T02:17:33.034Z,26.24
2023-08-04T02:17:45.989Z,26.23
2023-08-04T02:17:58.947Z,26.23
2023-08-04T02:18:11.943Z,26.24
2023-08-04T02:18:25.039Z,26.22
2023-08-04T02:18:37.922Z,26.20
2023-08-04T02:18:50.816Z,26.20
2023-08-04T02:19:05.625Z,26.20
2023-08-04T02:19:18.605Z,26.20
2023-08-04T02:19:31.463Z,26.17
2023-08-04T02:19:44.377Z,26.17
2023-08-04T02:19:57.320Z,26.19
2023-08-04T02:20:10.674Z,26.20
2023-08-04T02:20:23.648Z,26.20
2023-08-04T02:20:36.572Z,26.19
2023-08-04T02:20:49.470Z,26.22
2023-08-04T02:21:02.375Z,26.22
2023-08-04T02:21:15.333Z,26.21
2023-08-04T02:21:28.216Z,26.24
2023-08-04T02:21:41.114Z,26.24
2023-08-04T02:21:54.018Z,26.22
2023-08-04T02:22:06.971Z,26.24
2023-08-04T02:22:19.816Z,26.25
2023-08-04T02:22:32.699Z,26.19
2023-08-04T02:22:45.611Z,26.21
2023-08-04T02:22:58.491Z,26.21
2023-08-04T02:23:11.372Z,26.24
2023-08-04T02:23:24.281Z,26.25
2023-08-04T02:23:37.121Z,26.22
2023-08-04T02:24:20.234Z,26.24
2023-08-04T02:24:33.119Z,26.21
2023-08-04T02:24:46.127Z,26.20
2023-08-04T02:24:59.043Z,26.23
2023-08-04T02:25:11.948Z,26.24
2023-08-04T02:25:27.749Z,26.25
2023-08-04T02:25:40.659Z,26.25
2023-08-04T02:25:53.608Z,26.26
2023-08-04T02:26:06.510Z,26.29
2023-08-04T02:26:19.406Z,26.28
2023-08-04T02:26:32.392Z,26.23
2023-08-04T02:26:45.861Z,26.23
2023-08-04T02:26:58.787Z,26.19
2023-08-04T02:27:11.688Z,26.19
2023-08-04T02:27:24.623Z,26.21
2023-08-04T02:27:37.519Z,26.21
2023-08-04T02:28:20.830Z,26.22
2023-08-04T02:28:33.670Z,26.16
2023-08-04T02:28:46.654Z,26.17
2023-08-04T02:28:59.596Z,26.17
2023-08-04T02:29:13.193Z,26.18
2023-08-04T02:29:26.125Z,26.15
2023-08-04T02:29:39.151Z,26.20
2023-08-04T02:29:52.137Z,26.17
2023-08-04T02:30:05.584Z,26.18
2023-08-04T02:30:18.465Z,26.13
2023-08-04T02:30:31.389Z,26.17
2023-08-04T02:30:44.357Z,26.20
2023-08-04T02:30:59.484Z,26.19
2023-08-04T02:31:12.512Z,26.19
2023-08-04T02:31:26.381Z,26.17
2023-08-04T02:31:39.379Z,26.18
2023-08-04T02:31:52.398Z,26.17
2023-08-04T02:32:05.655Z,26.16
2023-08-04T02:32:18.573Z,26.17
2023-08-04T02:32:31.518Z,26.20
2023-08-04T02:32:44.529Z,26.22
2023-08-04T02:32:57.493Z,26.19
2023-08-04T02:33:10.527Z,26.19
2023-08-04T02:33:23.396Z,26.15
2023-08-04T02:33:36.248Z,26.17
2023-08-04T02:33:49.265Z,26.17
2023-08-04T02:34:02.314Z,26.19
2023-08-04T02:34:15.455Z,26.18
2023-08-04T02:34:28.339Z,26.20
2023-08-04T02:34:41.201Z,26.22
2023-08-04T02:34:54.141Z,26.17
2023-08-04T02:35:07.639Z,26.19
2023-08-04T02:35:20.545Z,26.17
2023-08-04T02:35:33.469Z,26.17
2023-08-04T02:35:47.889Z,26.19
2023-08-04T02:36:02.386Z,26.20
2023-08-04T02:36:15.337Z,26.16
2023-08-04T02:36:28.266Z,26.15
2023-08-04T02:36:41.203Z,26.17
2023-08-04T02:36:54.087Z,26.21
2023-08-04T02:37:07.038Z,26.20
2023-08-04T02:37:19.905Z,26.19
2023-08-04T02:37:32.826Z,26.22
2023-08-04T02:37:45.754Z,26.19
2023-08-04T02:37:58.716Z,26.21
2023-08-04T02:38:12.403Z,26.19
2023-08-04T02:38:55.607Z,26.18
2023-08-04T02:39:08.570Z,26.20
2023-08-04T02:39:21.424Z,26.20
2023-08-04T02:39:37.282Z,26.20
2023-08-04T02:39:50.142Z,26.16
2023-08-04T02:40:03.236Z,26.15
2023-08-04T02:40:16.164Z,26.17
2023-08-04T02:40:29.062Z,26.11
2023-08-04T02:40:41.897Z,26.11
2023-08-04T02:40:54.832Z,26.09
2023-08-04T02:41:09.480Z,26.11
2023-08-04T02:41:22.391Z,26.13
2023-08-04T02:41:35.414Z,26.16
2023-08-04T02:41:48.438Z,26.18
2023-08-04T02:42:01.498Z,26.16
2023-08-04T02:42:14.381Z,26.17
2023-08-04T02:42:27.385Z,26.16
2023-08-04T02:42:40.222Z,26.12
2023-08-04T02:42:53.066Z,26.12
2023-08-04T02:43:06.037Z,26.09
2023-08-04T02:43:18.901Z,26.13
2023-08-04T02:43:32.036Z,26.13
2023-08-04T02:43:44.916Z,26.16
2023-08-04T02:43:57.901Z,26.16
2023-08-04T02:44:10.896Z,26.16
2023-08-04T02:44:23.747Z,26.17
2023-08-04T02:44:36.641Z,26.16
2023-08-04T02:44:54.624Z,26.15
2023-08-04T02:45:08.137Z,26.16
2023-08-04T02:45:21.327Z,26.17
2023-08-04T02:45:34.250Z,26.17
2023-08-04T02:45:51.432Z,26.19
2023-08-04T02:46:04.552Z,26.11
2023-08-04T02:46:17.528Z,26.11
2023-08-04T02:46:30.473Z,26.13
2023-08-04T02:46:46.024Z,26.16
2023-08-04T02:46:59.115Z,26.16
2023-08-04T02:47:12.091Z,26.16
2023-08-04T02:47:25.026Z,26.18
2023-08-04T02:47:38.459Z,26.16
2023-08-04T02:47:51.623Z,26.13
2023-08-04T02:48:04.765Z,26.13
2023-08-04T02:48:17.678Z,26.12
2023-08-04T02:48:31.353Z,26.13
2023-08-04T02:48:44.220Z,26.13
2023-08-04T02:48:57.095Z,26.11
2023-08-04T02:49:10.004Z,26.13
2023-08-04T02:49:22.906Z,26.15
2023-08-04T02:49:37.355Z,26.18
2023-08-04T02:49:51.986Z,26.17
2023-08-04T02:50:07.896Z,26.03
2023-08-04T02:50:20.801Z,26.08
2023-08-04T02:50:33.695Z,26.08
2023-08-04T02:50:48.006Z,26.11
2023-08-04T02:51:07.153Z,26.13
2023-08-04T02:51:20.081Z,26.17
2023-08-04T02:51:32.990Z,26.10
2023-08-04T02:51:46.307Z,26.14
2023-08-04T02:51:59.464Z,26.08
2023-08-04T02:52:15.791Z,26.08
2023-08-04T02:52:28.909Z,26.06
2023-08-04T02:52:41.799Z,26.05
2023-08-04T02:52:54.675Z,26.07
2023-08-04T02:53:07.562Z,26.11
2023-08-04T02:53:20.378Z,26.11
2023-08-04T02:53:34.231Z,26.12
2023-08-04T02:53:47.514Z,26.15
2023-08-04T02:54:00.418Z,26.12
2023-08-04T02:54:13.309Z,26.15
2023-08-04T02:54:26.193Z,26.15
2023-08-04T02:54:39.047Z,26.14
2023-08-04T02:54:55.161Z,26.15
2023-08-04T02:55:08.961Z,26.13
2023-08-04T02:55:21.879Z,26.10
2023-08-04T02:55:34.734Z,26.07
2023-08-04T02:55:47.623Z,25.98
2023-08-04T02:56:00.550Z,26.01
2023-08-04T02:56:17.594Z,26.02
2023-08-04T02:56:30.572Z,26.08
2023-08-04T02:56:43.495Z,26.10
2023-08-04T02:56:56.364Z,26.10
2023-08-04T02:57:09.290Z,26.13
2023-08-04T02:57:22.203Z,26.12
2023-08-04T02:57:36.601Z,26.13
2023-08-04T02:57:49.594Z,26.17
2023-08-04T02:58:02.512Z,26.15
2023-08-04T02:58:15.359Z,26.14
2023-08-04T02:58:28.900Z,26.13
2023-08-04T02:58:42.997Z,26.17
2023-08-04T02:58:55.910Z,26.17
2023-08-04T02:59:08.843Z,26.12
2023-08-04T02:59:21.794Z,26.06
2023-08-04T02:59:34.681Z,26.09
2023-08-04T02:59:47.595Z,26.14
2023-08-04T03:00:00.536Z,26.14
2023-08-04T03:00:13.479Z,26.13
2023-08-04T03:00:29.089Z,26.10
2023-08-04T03:00:41.987Z,26.06
2023-08-04T03:00:55.058Z,26.11
2023-08-04T03:01:08.167Z,26.13
2023-08-04T03:01:21.109Z,26.15
2023-08-04T03:01:34.103Z,26.11
2023-08-04T03:01:47.329Z,26.10
2023-08-04T03:02:00.398Z,26.13
2023-08-04T03:02:13.415Z,26.13
2023-08-04T03:02:27.118Z,26.15
2023-08-04T03:02:40.147Z,26.18
2023-08-04T03:02:53.224Z,26.10
2023-08-04T03:03:06.111Z,26.11
2023-08-04T03:03:19.818Z,26.09
2023-08-04T03:03:33.246Z,26.10
2023-08-04T03:03:46.106Z,26.11
2023-08-04T03:03:58.989Z,26.10
2023-08-04T03:04:14.008Z,26.13
2023-08-04T03:04:27.249Z,26.13
2023-08-04T03:04:40.616Z,26.15
2023-08-04T03:04:53.673Z,26.15
2023-08-04T03:05:06.972Z,26.17
2023-08-04T03:05:19.867Z,26.17
2023-08-04T03:05:35.976Z,26.17
2023-08-04T03:05:48.866Z,26.17
2023-08-04T03:06:02.202Z,26.16
2023-08-04T03:06:15.090Z,26.19
2023-08-04T03:06:27.973Z,26.15
2023-08-04T03:06:40.871Z,26.14
2023-08-04T03:06:53.802Z,26.16
2023-08-04T03:07:07.048Z,26.17
2023-08-04T03:07:19.962Z,26.12
2023-08-04T03:07:33.938Z,26.18
2023-08-04T03:07:46.766Z,26.18
2023-08-04T03:07:59.632Z,26.17
2023-08-04T03:08:12.573Z,26.19
2023-08-04T03:08:25.437Z,26.17
2023-08-04T03:08:38.368Z,26.19
2023-08-04T03:08:51.314Z,26.19
2023-08-04T03:09:04.206Z,26.18
2023-08-04T03:09:17.092Z,26.19
2023-08-04T03:09:30.033Z,26.16
2023-08-04T03:09:42.911Z,26.16
2023-08-04T03:09:55.851Z,26.19
2023-08-04T03:10:09.062Z,26.18
2023-08-04T03:10:22.197Z,26.18
2023-08-04T03:10:35.098Z,26.16
2023-08-04T03:10:48.001Z,26.15
2023-08-04T03:11:00.878Z,26.17
2023-08-04T03:11:13.883Z,26.18
2023-08-04T03:11:26.862Z,26.14
2023-08-04T03:11:39.733Z,26.15
2023-08-04T03:11:52.646Z,26.14
2023-08-04T03:12:05.848Z,26.15
2023-08-04T03:12:18.757Z,26.18
2023-08-04T03:12:31.631Z,26.15
2023-08-04T03:13:15.695Z,26.17
2023-08-04T03:13:28.874Z,26.17
2023-08-04T03:13:41.740Z,26.18
2023-08-04T03:13:54.627Z,26.18
2023-08-04T03:14:07.564Z,26.18
2023-08-04T03:14:20.598Z,26.17
2023-08-04T03:14:33.577Z,26.15
2023-08-04T03:14:46.418Z,26.18
2023-08-04T03:15:00.572Z,26.18
2023-08-04T03:15:13.655Z,26.15
2023-08-04T03:15:26.536Z,26.16
2023-08-04T03:15:39.392Z,26.15
2023-08-04T03:15:58.624Z,26.15
2023-08-04T03:16:11.532Z,26.12
2023-08-04T03:16:24.599Z,26.13
2023-08-04T03:16:37.565Z,26.11
2023-08-04T03:16:51.383Z,26.12
2023-08-04T03:17:04.450Z,26.14
2023-08-04T03:17:17.400Z,26.15
2023-08-04T03:17:30.353Z,26.16
2023-08-04T03:17:43.356Z,26.17
2023-08-04T03:17:56.641Z,26.15
2023-08-04T03:18:09.554Z,26.14
2023-08-04T03:18:22.470Z,26.16
2023-08-04T03:18:35.351Z,26.16
2023-08-04T03:18:48.275Z,26.09
2023-08-04T03:19:01.156Z,26.11
2023-08-04T03:19:14.188Z,26.09
2023-08-04T03:19:27.073Z,26.14
2023-08-04T03:19:40.030Z,26.14
2023-08-04T03:19:52.990Z,26.15
2023-08-04T03:20:06.422Z,26.16
2023-08-04T03:20:19.315Z,26.14
2023-08-04T03:20:36.350Z,26.16
2023-08-04T03:20:49.177Z,26.14
2023-08-04T03:21:05.502Z,26.17
2023-08-04T03:21:18.420Z,26.10
2023-08-04T03:21:31.260Z,26.10
2023-08-04T03:21:44.167Z,26.09
2023-08-04T03:21:57.111Z,26.10
2023-08-04T03:22:10.012Z,26.07
2023-08-04T03:22:22.869Z,26.07
2023-08-04T03:22:35.731Z,26.12
2023-08-04T03:22:48.692Z,26.06
2023-08-04T03:23:01.574Z,26.03
2023-08-04T03:23:14.466Z,26.06
2023-08-04T03:23:27.404Z,26.03
2023-08-04T03:23:40.283Z,26.06
2023-08-04T03:23:53.142Z,26.11
2023-08-04T03:24:06.081Z,26.07
2023-08-04T03:24:18.964Z,26.09
2023-08-04T03:24:32.137Z,26.12
2023-08-04T03:24:45.029Z,26.15
2023-08-04T03:24:58.620Z,26.08
2023-08-04T03:25:11.552Z,26.12
2023-08-04T03:25:24.472Z,26.09
2023-08-04T03:25:37.338Z,26.11
2023-08-04T03:25:50.420Z,26.12
2023-08-04T03:26:03.340Z,26.13
2023-08-04T03:26:16.233Z,26.14
2023-08-04T03:26:29.113Z,26.16
2023-08-04T03:26:41.979Z,26.16
2023-08-04T03:26:54.866Z,26.16
2023-08-04T03:27:38.141Z,26.11
2023-08-04T03:27:51.078Z,26.14
2023-08-04T03:28:03.958Z,26.14
2023-08-04T03:28:16.900Z,26.16
2023-08-04T03:28:29.780Z,26.15
2023-08-04T03:28:42.708Z,26.11
2023-08-04T03:28:55.622Z,26.14
2023-08-04T03:29:08.583Z,26.14
2023-08-04T03:29:21.897Z,26.18
2023-08-04T03:29:34.794Z,26.13
2023-08-04T03:29:48.402Z,26.10
2023-08-04T03:30:01.358Z,26.11
2023-08-04T03:30:14.316Z,26.10
2023-08-04T03:30:27.214Z,26.07
2023-08-04T03:30:40.192Z,26.10
2023-08-04T03:30:53.122Z,26.10
2023-08-04T03:31:06.048Z,26.12
2023-08-04T03:31:18.997Z,26.11
2023-08-04T03:31:31.954Z,26.04
2023-08-04T03:31:47.786Z,26.07
2023-08-04T03:32:01.082Z,26.06
2023-08-04T03:32:14.059Z,26.09
2023-08-04T03:32:27.022Z,26.09
2023-08-04T03:32:40.016Z,26.08
2023-08-04T03:32:53.043Z,26.09
2023-08-04T03:33:06.127Z,26.11
2023-08-04T03:33:19.923Z,26.14
2023-08-04T03:33:32.785Z,26.13
2023-08-04T03:33:45.686Z,26.11
2023-08-04T03:33:58.581Z,26.12
2023-08-04T03:34:11.511Z,26.14
2023-08-04T03:34:24.394Z,26.12
2023-08-04T03:34:37.278Z,26.14
2023-08-04T03:34:50.132Z,26.15
2023-08-04T03:35:03.166Z,26.14
2023-08-04T03:35:16.073Z,26.15
2023-08-04T03:35:29.101Z,26.09
2023-08-04T03:35:42.439Z,26.10
2023-08-04T03:35:55.317Z,26.03
2023-08-04T03:36:08.297Z,26.08
2023-08-04T03:36:21.202Z,26.10
2023-08-04T03:36:34.885Z,26.13
2023-08-04T03:36:47.798Z,26.14
2023-08-04T03:37:00.760Z,26.11
2023-08-04T03:37:13.624Z,26.07
2023-08-04T03:37:26.486Z,26.10
2023-08-04T03:37:40.202Z,26.10
2023-08-04T03:37:53.083Z,26.08
2023-08-04T03:38:05.933Z,26.10
2023-08-04T03:38:18.816Z,26.08
2023-08-04T03:38:31.761Z,26.06
2023-08-04T03:38:44.755Z,26.07
2023-08-04T03:38:57.694Z,26.09
2023-08-04T03:39:10.648Z,26.07
2023-08-04T03:39:23.497Z,26.08
2023-08-04T03:39:36.370Z,26.10
2023-08-04T03:39:49.431Z,26.07
2023-08-04T03:40:02.287Z,26.09
2023-08-04T03:40:15.677Z,26.09
2023-08-04T03:40:28.585Z,26.07
2023-08-04T03:40:41.586Z,26.07
2023-08-04T03:40:54.409Z,26.04
2023-08-04T03:41:07.258Z,26.06
2023-08-04T03:41:20.266Z,26.04
2023-08-04T03:41:33.156Z,26.06
2023-08-04T03:41:46.918Z,26.07
2023-08-04T03:42:00.021Z,26.07
2023-08-04T03:42:12.906Z,26.08
2023-08-04T03:42:25.769Z,26.09
2023-08-04T03:42:39.361Z,26.08
2023-08-04T03:42:52.473Z,26.06
2023-08-04T03:43:06.701Z,26.06
2023-08-04T03:43:19.512Z,26.08
2023-08-04T03:43:32.441Z,26.11
2023-08-04T03:43:45.435Z,26.11
2023-08-04T03:43:58.360Z,26.09
2023-08-04T03:44:11.299Z,26.12
2023-08-04T03:44:24.140Z,26.11
2023-08-04T03:44:37.078Z,26.11
2023-08-04T03:44:49.947Z,26.12
2023-08-04T03:45:03.353Z,26.13
2023-08-04T03:45:16.243Z,26.12
2023-08-04T03:45:29.134Z,26.11
2023-08-04T03:45:42.048Z,26.07
2023-08-04T03:45:54.948Z,26.09
2023-08-04T03:46:07.856Z,26.10
2023-08-04T03:46:20.845Z,26.06
2023-08-04T03:46:34.015Z,26.10
2023-08-04T03:46:47.098Z,26.10
2023-08-04T03:47:00.064Z,26.12
2023-08-04T03:47:12.945Z,26.10
2023-08-04T03:47:25.881Z,26.10
2023-08-04T03:47:38.893Z,26.06
2023-08-04T03:47:51.949Z,26.05
2023-08-04T03:48:05.027Z,26.09
2023-08-04T03:48:17.976Z,26.08
2023-08-04T03:48:30.960Z,26.08
2023-08-04T03:48:43.893Z,26.11
2023-08-04T03:48:56.820Z,26.10
2023-08-04T03:49:09.714Z,26.11
2023-08-04T03:49:22.632Z,26.12
2023-08-04T03:49:35.533Z,26.06
2023-08-04T03:49:48.982Z,26.09
2023-08-04T03:50:03.172Z,26.06
2023-08-04T03:50:16.083Z,26.05
2023-08-04T03:50:28.993Z,26.04
2023-08-04T03:50:41.852Z,26.02
2023-08-04T03:50:54.765Z,26.03
2023-08-04T03:51:08.113Z,26.07
2023-08-04T03:51:21.236Z,26.06
2023-08-04T03:51:34.208Z,26.06
2023-08-04T03:51:47.423Z,26.09
2023-08-04T03:52:00.558Z,26.09
2023-08-04T03:52:13.470Z,26.07
2023-08-04T03:52:26.391Z,26.04
2023-08-04T03:52:39.270Z,26.07
2023-08-04T03:52:52.297Z,26.06
2023-08-04T03:53:05.203Z,26.04
2023-08-04T03:53:18.050Z,26.04
2023-08-04T03:53:30.968Z,26.06
2023-08-04T03:53:43.868Z,26.04
2023-08-04T03:53:56.785Z,26.05
2023-08-04T03:54:09.692Z,26.02
2023-08-04T03:54:22.947Z,26.05
2023-08-04T03:54:36.046Z,26.06
2023-08-04T03:54:48.933Z,26.08
2023-08-04T03:55:01.846Z,26.05
2023-08-04T03:55:14.704Z,26.05
2023-08-04T03:55:28.340Z,26.08
2023-08-04T03:55:41.204Z,26.08
2023-08-04T03:55:54.182Z,26.09
2023-08-04T03:56:07.040Z,26.08
2023-08-04T03:56:19.913Z,26.11
2023-08-04T03:56:32.806Z,26.11
2023-08-04T03:56:45.799Z,26.13
2023-08-04T03:56:58.675Z,26.14
2023-08-04T03:57:11.554Z,26.12
2023-08-04T03:57:24.542Z,26.09
2023-08-04T03:57:37.426Z,26.03
2023-08-04T03:57:50.308Z,26.05
2023-08-04T03:58:03.186Z,26.04
2023-08-04T03:58:16.095Z,26.05
2023-08-04T03:58:29.021Z,26.02
2023-08-04T03:58:41.913Z,25.99
2023-08-04T03:58:54.742Z,25.99
2023-08-04T03:59:09.331Z,26.00
2023-08-04T03:59:22.283Z,26.03
2023-08-04T03:59:35.162Z,26.02
2023-08-04T03:59:49.198Z,26.01
2023-08-04T04:00:02.866Z,25.96
2023-08-04T04:00:16.421Z,26.00
2023-08-04T04:00:29.347Z,26.02
2023-08-04T04:00:42.258Z,26.03
2023-08-04T04:00:55.373Z,26.05
2023-08-04T04:01:08.406Z,26.04
2023-08-04T04:01:21.358Z,25.99
2023-08-04T04:01:34.378Z,26.02
2023-08-04T04:01:47.907Z,26.02
2023-08-04T04:02:00.954Z,26.02
2023-08-04T04:02:13.998Z,25.92
2023-08-04T04:02:26.890Z,25.99
2023-08-04T04:02:40.241Z,25.96
2023-08-04T04:02:53.217Z,25.96
2023-08-04T04:03:06.448Z,25.98
2023-08-04T04:03:19.497Z,25.98
2023-08-04T04:03:32.420Z,25.99
2023-08-04T04:03:45.360Z,25.97
2023-08-04T04:03:58.343Z,25.99
2023-08-04T04:04:11.228Z,25.97
2023-08-04T04:04:24.198Z,25.97
2023-08-04T04:04:37.130Z,25.90
2023-08-04T04:04:50.090Z,25.91
2023-08-04T04:05:03.998Z,25.96
2023-08-04T04:05:16.926Z,25.95
2023-08-04T04:05:29.941Z,25.99
2023-08-04T04:05:42.808Z,25.90
2023-08-04T04:05:55.761Z,25.95
2023-08-04T04:06:08.645Z,25.97
2023-08-04T04:06:21.517Z,25.99
2023-08-04T04:06:34.424Z,25.99
2023-08-04T04:06:47.286Z,25.93
2023-08-04T04:07:00.186Z,25.89
2023-08-04T04:07:13.044Z,25.91
2023-08-04T04:07:25.926Z,25.95
2023-08-04T04:07:38.829Z,25.96
2023-08-04T04:07:51.715Z,25.92
2023-08-04T04:08:04.708Z,25.94
2023-08-04T04:08:17.607Z,25.94
2023-08-04T04:08:30.731Z,25.94
2023-08-04T04:08:43.615Z,25.95
2023-08-04T04:08:56.632Z,25.92
2023-08-04T04:09:09.506Z,25.82
2023-08-04T04:09:22.364Z,25.88
2023-08-04T04:09:35.257Z,25.90
2023-08-04T04:09:48.131Z,25.94
2023-08-04T04:10:01.071Z,25.90
2023-08-04T04:10:13.937Z,25.95
2023-08-04T04:10:26.890Z,25.97
2023-08-04T04:10:39.803Z,25.97
2023-08-04T04:10:52.715Z,25.98
2023-08-04T04:11:05.576Z,25.90
2023-08-04T04:11:18.469Z,25.95
2023-08-04T04:11:31.343Z,25.96
2023-08-04T04:11:44.484Z,25.91
2023-08-04T04:11:57.596Z,25.92